CYXC

Cranbrook Airport

Cranbrook, British Columbia, Canada
METAR CYXC 150000Z 11005KT 5SM FU BKN220 30/05 A2990 RMK FU2CI3 SLP111 DENSITY ALT 5500FT
Observed Flight Rules
Aug-15 @ 00:00 UTC (an hour ago) Marginal Visual Flight Rules
Wind Visibility Clouds Conditions
110° at 5 knots 5 miles
  • Broken at 22,000' AGL
  • Smoke
Temperatures Readings
Current 30°C / 86°F
Dewpoint 5°C / 41°F
Humidity 20%
Altimeter 29.9" Hg
Pressure 1011.1 hPa
Elevation 939
METAR CYXC 150000Z 11005KT 5SM FU BKN220 30/05 A2990 RMK FU2CI3 SLP111 DENSITY ALT 5500FT
Observed Flight Rules
Aug-15 @ 00:00 UTC
(an hour ago)
MVFR
Wind Visibility
110° at 5 knots 5 miles
Clouds
  • Broken at 22,000' AGL
Conditions
  • Smoke
Temperature Dewpoint
30°C / 86°F 5°C / 41°F
Humidity Altimeter Pressure
20% 29.9" Hg 1011.1 hPa